ANDO2: Washita River, OK

Data processed at Sun Aug 30 23:37:05 2015 Central Daylight Time


All information presented herein is the property of the government of the United States of America and may be revised or deleted at any time without prior notice.
Dissemination of this information without the expressed written consent of the Public Affairs Office, Tulsa District U.S. Army Corps of Engineers is strictly prohibited.
These data are gathered electronically and, as presented, have not undergone any form of quality control. These data are not guaranteed to be valid or correct.
Go to home page.
Go to station list.
Go to station map.

Upstream stations:

Downstream station: Previous Day
Next Day
Current Day

Display graphics.
Display DCP transmissions.


    
    SHEF ID:       ANDO2     Washita River, OK
    STATION TYPE:  STREAM GAGE
    Regulation Limits:  Stage =   19.00, Flow =    6699
    
                   PRECIP PRECIP(2)     STAGE  RIV-FLOW   VOLTAGE
                   INCHES    INCHES      FEET       CFS     VOLTS
                     GOES      GOES      GOES      GOES      GOES
       (Cen)
    08/30 01:00      0.00      0.00      7.14       216     12.65
    08/30 02:00      0.00      0.00      7.09       194     12.65
    08/30 03:00      0.00      0.00      7.11       204     12.65
    08/30 04:00      0.00      0.00      7.11       204     12.65
    08/30 05:00      0.00      0.00      7.11       204     12.65
    08/30 06:00      0.00      0.00      7.11       204     12.65
    08/30 07:00      0.00      0.00      7.11       204     12.57
    08/30 08:00      0.00      0.00      7.11       204     12.65
    08/30 09:00      0.00      0.00      7.14       216     13.68
    08/30 10:00      0.00      0.00      7.14       216     13.53
    08/30 11:00      0.00      0.00      7.16       224     13.76
    08/30 12:00      0.00      0.00      7.14       216     13.84
    08/30 13:00      0.00      0.0010000016.0      ----     13.84
    08/30 14:00      0.00      0.00      7.16       224     13.21
    08/30 15:00      0.00      0.00      7.15       220     13.76
    08/30 16:00      0.00      0.00      7.16       224     13.44
    08/30 17:00      0.00      0.00      7.15       220     14.00
    08/30 18:00      0.00      0.00      7.14       216     13.13
    08/30 19:00      0.00      0.00      7.08       189     13.21
    08/30 20:00      0.00      0.00      7.14       216     13.13
    08/30 21:00      0.00      0.00      7.12       208     12.81
    08/30 22:00      0.00      0.00      7.11       204     12.73
    08/30 23:00      0.00      0.00      7.12       208     12.73
    08/31 00:00      ----      ----      ----      ----      ----